sensor_id;sensor_type;location;lat;lon;timestamp;pressure;altitude;pressure_sealevel;temperature
20103;BMP180;10210;52.284;9.892;2023-05-14T00:00:50;100962.00;;;20.10
20103;BMP180;10210;52.284;9.892;2023-05-14T00:03:15;100966.00;;;20.10
20103;BMP180;10210;52.284;9.892;2023-05-14T00:05:41;100966.00;;;20.10
20103;BMP180;10210;52.284;9.892;2023-05-14T00:08:07;100970.00;;;20.20
20103;BMP180;10210;52.284;9.892;2023-05-14T00:10:32;100960.00;;;20.20
20103;BMP180;10210;52.284;9.892;2023-05-14T00:12:58;100961.00;;;20.20
20103;BMP180;10210;52.284;9.892;2023-05-14T00:15:23;100969.00;;;20.20
20103;BMP180;10210;52.284;9.892;2023-05-14T00:17:49;100963.00;;;20.20
20103;BMP180;10210;52.284;9.892;2023-05-14T00:20:15;100961.00;;;20.20
20103;BMP180;10210;52.284;9.892;2023-05-14T00:22:41;100966.00;;;20.20
20103;BMP180;10210;52.284;9.892;2023-05-14T00:25:08;100966.00;;;20.20
20103;BMP180;10210;52.284;9.892;2023-05-14T00:27:35;100949.00;;;20.20
20103;BMP180;10210;52.284;9.892;2023-05-14T00:30:04;100945.00;;;20.20
20103;BMP180;10210;52.284;9.892;2023-05-14T00:32:33;100952.00;;;20.20
20103;BMP180;10210;52.284;9.892;2023-05-14T00:34:59;100948.00;;;20.20
20103;BMP180;10210;52.284;9.892;2023-05-14T00:37:25;100953.00;;;20.10
20103;BMP180;10210;52.284;9.892;2023-05-14T00:39:51;100946.00;;;20.10
20103;BMP180;10210;52.284;9.892;2023-05-14T00:42:16;100952.00;;;19.90
20103;BMP180;10210;52.284;9.892;2023-05-14T00:44:42;100943.00;;;19.80
20103;BMP180;10210;52.284;9.892;2023-05-14T00:47:07;100937.00;;;19.60
20103;BMP180;10210;52.284;9.892;2023-05-14T00:49:34;100943.00;;;19.50
20103;BMP180;10210;52.284;9.892;2023-05-14T00:52:00;100951.00;;;19.40
20103;BMP180;10210;52.284;9.892;2023-05-14T00:54:27;100948.00;;;19.30
20103;BMP180;10210;52.284;9.892;2023-05-14T00:56:54;100942.00;;;19.30
20103;BMP180;10210;52.284;9.892;2023-05-14T00:59:20;100943.00;;;19.20
20103;BMP180;10210;52.284;9.892;2023-05-14T01:01:46;100944.00;;;19.10
20103;BMP180;10210;52.284;9.892;2023-05-14T01:04:11;100949.00;;;19.10
20103;BMP180;10210;52.284;9.892;2023-05-14T01:07:28;100948.00;;;19.00
20103;BMP180;10210;52.284;9.892;2023-05-14T01:10:10;100948.00;;;19.10
20103;BMP180;10210;52.284;9.892;2023-05-14T01:13:13;100960.00;;;19.10
20103;BMP180;10210;52.284;9.892;2023-05-14T01:15:44;100944.00;;;19.10
20103;BMP180;10210;52.284;9.892;2023-05-14T01:18:16;100946.00;;;19.20
20103;BMP180;10210;52.284;9.892;2023-05-14T01:20:43;100949.00;;;19.20
20103;BMP180;10210;52.284;9.892;2023-05-14T01:23:09;100950.00;;;19.20
20103;BMP180;10210;52.284;9.892;2023-05-14T01:25:35;100944.00;;;19.30
20103;BMP180;10210;52.284;9.892;2023-05-14T01:28:27;100941.00;;;19.20
20103;BMP180;10210;52.284;9.892;2023-05-14T01:31:02;100943.00;;;19.20
20103;BMP180;10210;52.284;9.892;2023-05-14T01:33:34;100944.00;;;19.20
20103;BMP180;10210;52.284;9.892;2023-05-14T01:36:01;100935.00;;;19.30
20103;BMP180;10210;52.284;9.892;2023-05-14T01:38:27;100944.00;;;19.30
20103;BMP180;10210;52.284;9.892;2023-05-14T01:40:59;100941.00;;;19.20
20103;BMP180;10210;52.284;9.892;2023-05-14T01:43:25;100935.00;;;19.20
20103;BMP180;10210;52.284;9.892;2023-05-14T01:45:51;100932.00;;;19.20
20103;BMP180;10210;52.284;9.892;2023-05-14T01:48:20;100933.00;;;19.10
20103;BMP180;10210;52.284;9.892;2023-05-14T01:50:45;100933.00;;;19.00
20103;BMP180;10210;52.284;9.892;2023-05-14T01:53:11;100931.00;;;18.90
20103;BMP180;10210;52.284;9.892;2023-05-14T01:55:37;100930.00;;;18.80
20103;BMP180;10210;52.284;9.892;2023-05-14T01:58:02;100939.00;;;18.70
20103;BMP180;10210;52.284;9.892;2023-05-14T02:00:28;100916.00;;;18.70
20103;BMP180;10210;52.284;9.892;2023-05-14T02:02:54;100923.00;;;18.70
20103;BMP180;10210;52.284;9.892;2023-05-14T02:05:19;100928.00;;;18.70
20103;BMP180;10210;52.284;9.892;2023-05-14T02:07:45;100926.00;;;18.60
20103;BMP180;10210;52.284;9.892;2023-05-14T02:10:11;100923.00;;;18.60
20103;BMP180;10210;52.284;9.892;2023-05-14T02:12:36;100917.00;;;18.60
20103;BMP180;10210;52.284;9.892;2023-05-14T02:15:03;100915.00;;;18.50
20103;BMP180;10210;52.284;9.892;2023-05-14T02:17:29;100916.00;;;18.50
20103;BMP180;10210;52.284;9.892;2023-05-14T02:19:54;100916.00;;;18.50
20103;BMP180;10210;52.284;9.892;2023-05-14T02:22:20;100917.00;;;18.50
20103;BMP180;10210;52.284;9.892;2023-05-14T02:24:46;100913.00;;;18.50
20103;BMP180;10210;52.284;9.892;2023-05-14T02:27:11;100922.00;;;18.50
20103;BMP180;10210;52.284;9.892;2023-05-14T02:29:38;100922.00;;;18.50
20103;BMP180;10210;52.284;9.892;2023-05-14T02:32:04;100916.00;;;18.50
20103;BMP180;10210;52.284;9.892;2023-05-14T02:34:30;100916.00;;;18.40
20103;BMP180;10210;52.284;9.892;2023-05-14T02:36:57;100918.00;;;18.40
20103;BMP180;10210;52.284;9.892;2023-05-14T02:39:23;100904.00;;;18.40
20103;BMP180;10210;52.284;9.892;2023-05-14T02:41:49;100907.00;;;18.40
20103;BMP180;10210;52.284;9.892;2023-05-14T02:44:14;100904.00;;;18.40
20103;BMP180;10210;52.284;9.892;2023-05-14T02:46:41;100908.00;;;18.40
20103;BMP180;10210;52.284;9.892;2023-05-14T02:49:07;100907.00;;;18.40
20103;BMP180;10210;52.284;9.892;2023-05-14T02:51:33;100901.00;;;18.40
20103;BMP180;10210;52.284;9.892;2023-05-14T02:53:58;100901.00;;;18.40
20103;BMP180;10210;52.284;9.892;2023-05-14T02:56:24;100902.00;;;18.40
20103;BMP180;10210;52.284;9.892;2023-05-14T02:58:50;100901.00;;;18.40
20103;BMP180;10210;52.284;9.892;2023-05-14T03:01:16;100911.00;;;18.30
20103;BMP180;10210;52.284;9.892;2023-05-14T03:03:43;100897.00;;;18.20
20103;BMP180;10210;52.284;9.892;2023-05-14T03:06:09;100913.00;;;18.20
20103;BMP180;10210;52.284;9.892;2023-05-14T03:08:35;100907.00;;;18.10
20103;BMP180;10210;52.284;9.892;2023-05-14T03:11:01;100919.00;;;18.00
20103;BMP180;10210;52.284;9.892;2023-05-14T03:13:26;100917.00;;;18.00
20103;BMP180;10210;52.284;9.892;2023-05-14T03:15:52;100906.00;;;17.90
20103;BMP180;10210;52.284;9.892;2023-05-14T03:18:20;100905.00;;;17.90
20103;BMP180;10210;52.284;9.892;2023-05-14T03:20:45;100902.00;;;17.80
20103;BMP180;10210;52.284;9.892;2023-05-14T03:23:12;100899.00;;;17.80
20103;BMP180;10210;52.284;9.892;2023-05-14T03:25:37;100898.00;;;17.80
20103;BMP180;10210;52.284;9.892;2023-05-14T03:28:03;100890.00;;;17.80
20103;BMP180;10210;52.284;9.892;2023-05-14T03:30:29;100905.00;;;17.80
20103;BMP180;10210;52.284;9.892;2023-05-14T03:32:54;100896.00;;;17.80
20103;BMP180;10210;52.284;9.892;2023-05-14T03:35:20;100900.00;;;17.70
20103;BMP180;10210;52.284;9.892;2023-05-14T03:37:46;100899.00;;;17.70
20103;BMP180;10210;52.284;9.892;2023-05-14T03:40:11;100888.00;;;17.60
20103;BMP180;10210;52.284;9.892;2023-05-14T03:42:37;100889.00;;;17.60
20103;BMP180;10210;52.284;9.892;2023-05-14T03:45:03;100889.00;;;17.60
20103;BMP180;10210;52.284;9.892;2023-05-14T03:47:29;100883.00;;;17.60
20103;BMP180;10210;52.284;9.892;2023-05-14T03:49:55;100890.00;;;17.60
20103;BMP180;10210;52.284;9.892;2023-05-14T03:52:21;100886.00;;;17.60
20103;BMP180;10210;52.284;9.892;2023-05-14T03:54:47;100885.00;;;17.50
20103;BMP180;10210;52.284;9.892;2023-05-14T03:57:12;100890.00;;;17.60
20103;BMP180;10210;52.284;9.892;2023-05-14T03:59:38;100878.00;;;17.60
20103;BMP180;10210;52.284;9.892;2023-05-14T04:02:04;100894.00;;;17.60
20103;BMP180;10210;52.284;9.892;2023-05-14T04:04:29;100891.00;;;17.60
20103;BMP180;10210;52.284;9.892;2023-05-14T04:06:55;100905.00;;;17.70
20103;BMP180;10210;52.284;9.892;2023-05-14T04:09:20;100899.00;;;17.70
20103;BMP180;10210;52.284;9.892;2023-05-14T04:11:46;100892.00;;;17.70
20103;BMP180;10210;52.284;9.892;2023-05-14T04:14:12;100892.00;;;17.70
20103;BMP180;10210;52.284;9.892;2023-05-14T04:16:37;100896.00;;;17.70
20103;BMP180;10210;52.284;9.892;2023-05-14T04:19:03;100892.00;;;17.60
20103;BMP180;10210;52.284;9.892;2023-05-14T04:21:30;100889.00;;;17.60
20103;BMP180;10210;52.284;9.892;2023-05-14T04:23:56;100899.00;;;17.60
20103;BMP180;10210;52.284;9.892;2023-05-14T04:26:22;100896.00;;;17.60
20103;BMP180;10210;52.284;9.892;2023-05-14T04:28:47;100885.00;;;17.60
20103;BMP180;10210;52.284;9.892;2023-05-14T04:31:14;100888.00;;;17.70
20103;BMP180;10210;52.284;9.892;2023-05-14T04:33:40;100891.00;;;17.70
20103;BMP180;10210;52.284;9.892;2023-05-14T04:36:06;100893.00;;;17.70
20103;BMP180;10210;52.284;9.892;2023-05-14T04:38:32;100886.00;;;17.70
20103;BMP180;10210;52.284;9.892;2023-05-14T04:40:58;100887.00;;;17.70
20103;BMP180;10210;52.284;9.892;2023-05-14T04:43:24;100890.00;;;17.70
20103;BMP180;10210;52.284;9.892;2023-05-14T04:45:50;100888.00;;;17.70
20103;BMP180;10210;52.284;9.892;2023-05-14T04:48:17;100888.00;;;17.70
20103;BMP180;10210;52.284;9.892;2023-05-14T04:50:43;100887.00;;;17.70
20103;BMP180;10210;52.284;9.892;2023-05-14T04:53:09;100894.00;;;17.70
20103;BMP180;10210;52.284;9.892;2023-05-14T04:55:35;100897.00;;;17.70
20103;BMP180;10210;52.284;9.892;2023-05-14T04:58:01;100897.00;;;17.70
20103;BMP180;10210;52.284;9.892;2023-05-14T05:00:28;100888.00;;;17.70
20103;BMP180;10210;52.284;9.892;2023-05-14T05:02:54;100898.00;;;17.70
20103;BMP180;10210;52.284;9.892;2023-05-14T05:05:20;100885.00;;;17.60
20103;BMP180;10210;52.284;9.892;2023-05-14T05:07:46;100889.00;;;17.60
20103;BMP180;10210;52.284;9.892;2023-05-14T05:10:11;100885.00;;;17.60
20103;BMP180;10210;52.284;9.892;2023-05-14T05:12:37;100893.00;;;17.60
20103;BMP180;10210;52.284;9.892;2023-05-14T05:15:03;100890.00;;;17.70
20103;BMP180;10210;52.284;9.892;2023-05-14T05:17:29;100894.00;;;17.70
20103;BMP180;10210;52.284;9.892;2023-05-14T05:19:55;100896.00;;;17.70
20103;BMP180;10210;52.284;9.892;2023-05-14T05:22:21;100894.00;;;17.70
20103;BMP180;10210;52.284;9.892;2023-05-14T05:24:47;100892.00;;;17.80
20103;BMP180;10210;52.284;9.892;2023-05-14T05:27:13;100891.00;;;17.80
20103;BMP180;10210;52.284;9.892;2023-05-14T05:29:39;100894.00;;;17.90
20103;BMP180;10210;52.284;9.892;2023-05-14T05:32:05;100893.00;;;17.90
20103;BMP180;10210;52.284;9.892;2023-05-14T05:34:31;100895.00;;;17.90
20103;BMP180;10210;52.284;9.892;2023-05-14T05:36:57;100893.00;;;18.00
20103;BMP180;10210;52.284;9.892;2023-05-14T05:39:23;100892.00;;;18.00
20103;BMP180;10210;52.284;9.892;2023-05-14T05:41:48;100889.00;;;18.10
20103;BMP180;10210;52.284;9.892;2023-05-14T05:44:14;100889.00;;;18.10
20103;BMP180;10210;52.284;9.892;2023-05-14T05:46:39;100892.00;;;18.10
20103;BMP180;10210;52.284;9.892;2023-05-14T05:49:05;100894.00;;;18.20
20103;BMP180;10210;52.284;9.892;2023-05-14T05:51:31;100887.00;;;18.20
20103;BMP180;10210;52.284;9.892;2023-05-14T05:53:57;100898.00;;;18.30
20103;BMP180;10210;52.284;9.892;2023-05-14T05:56:23;100897.00;;;18.30
20103;BMP180;10210;52.284;9.892;2023-05-14T05:58:48;100896.00;;;18.40
20103;BMP180;10210;52.284;9.892;2023-05-14T06:01:14;100895.00;;;18.40
20103;BMP180;10210;52.284;9.892;2023-05-14T06:03:40;100897.00;;;18.40
20103;BMP180;10210;52.284;9.892;2023-05-14T06:06:05;100905.00;;;18.50
20103;BMP180;10210;52.284;9.892;2023-05-14T06:08:31;100903.00;;;18.50
20103;BMP180;10210;52.284;9.892;2023-05-14T06:10:57;100896.00;;;18.60
20103;BMP180;10210;52.284;9.892;2023-05-14T06:13:22;100896.00;;;18.60
20103;BMP180;10210;52.284;9.892;2023-05-14T06:15:48;100902.00;;;18.60
20103;BMP180;10210;52.284;9.892;2023-05-14T06:18:14;100899.00;;;18.70
20103;BMP180;10210;52.284;9.892;2023-05-14T06:20:39;100894.00;;;18.70
20103;BMP180;10210;52.284;9.892;2023-05-14T06:23:06;100895.00;;;18.80
20103;BMP180;10210;52.284;9.892;2023-05-14T06:25:32;100908.00;;;18.80
20103;BMP180;10210;52.284;9.892;2023-05-14T06:27:58;100902.00;;;18.90
20103;BMP180;10210;52.284;9.892;2023-05-14T06:30:24;100894.00;;;18.90
20103;BMP180;10210;52.284;9.892;2023-05-14T06:32:49;100892.00;;;19.00
20103;BMP180;10210;52.284;9.892;2023-05-14T06:35:17;100895.00;;;19.00
20103;BMP180;10210;52.284;9.892;2023-05-14T06:37:44;100893.00;;;19.10
20103;BMP180;10210;52.284;9.892;2023-05-14T06:40:11;100892.00;;;19.10
20103;BMP180;10210;52.284;9.892;2023-05-14T06:42:38;100898.00;;;19.10
20103;BMP180;10210;52.284;9.892;2023-05-14T06:45:05;100888.00;;;19.20
20103;BMP180;10210;52.284;9.892;2023-05-14T06:47:30;100894.00;;;19.20
20103;BMP180;10210;52.284;9.892;2023-05-14T06:49:56;100900.00;;;19.30
20103;BMP180;10210;52.284;9.892;2023-05-14T06:52:23;100894.00;;;19.30
20103;BMP180;10210;52.284;9.892;2023-05-14T06:54:49;100897.00;;;19.40
20103;BMP180;10210;52.284;9.892;2023-05-14T06:57:15;100887.00;;;19.60
20103;BMP180;10210;52.284;9.892;2023-05-14T06:59:41;100893.00;;;20.00
20103;BMP180;10210;52.284;9.892;2023-05-14T07:02:07;100887.00;;;20.40
20103;BMP180;10210;52.284;9.892;2023-05-14T07:04:32;100889.00;;;20.70
20103;BMP180;10210;52.284;9.892;2023-05-14T07:06:58;100888.00;;;21.10
20103;BMP180;10210;52.284;9.892;2023-05-14T07:09:24;100892.00;;;21.60
20103;BMP180;10210;52.284;9.892;2023-05-14T07:11:49;100892.00;;;22.00
20103;BMP180;10210;52.284;9.892;2023-05-14T07:14:15;100880.00;;;22.40
20103;BMP180;10210;52.284;9.892;2023-05-14T07:16:40;100886.00;;;22.80
20103;BMP180;10210;52.284;9.892;2023-05-14T07:19:07;100881.00;;;23.20
20103;BMP180;10210;52.284;9.892;2023-05-14T07:21:34;100885.00;;;23.60
20103;BMP180;10210;52.284;9.892;2023-05-14T07:24:00;100887.00;;;24.00
20103;BMP180;10210;52.284;9.892;2023-05-14T07:26:26;100885.00;;;24.40
20103;BMP180;10210;52.284;9.892;2023-05-14T07:28:52;100885.00;;;24.80
20103;BMP180;10210;52.284;9.892;2023-05-14T07:31:17;100890.00;;;25.10
20103;BMP180;10210;52.284;9.892;2023-05-14T07:33:43;100882.00;;;25.50
20103;BMP180;10210;52.284;9.892;2023-05-14T07:36:08;100886.00;;;25.80
20103;BMP180;10210;52.284;9.892;2023-05-14T07:38:34;100884.00;;;26.10
20103;BMP180;10210;52.284;9.892;2023-05-14T07:41:00;100882.00;;;26.30
20103;BMP180;10210;52.284;9.892;2023-05-14T07:43:26;100885.00;;;26.50
20103;BMP180;10210;52.284;9.892;2023-05-14T07:45:51;100884.00;;;26.80
20103;BMP180;10210;52.284;9.892;2023-05-14T07:48:17;100886.00;;;27.20
20103;BMP180;10210;52.284;9.892;2023-05-14T07:50:43;100886.00;;;27.50
20103;BMP180;10210;52.284;9.892;2023-05-14T07:53:08;100880.00;;;27.60
20103;BMP180;10210;52.284;9.892;2023-05-14T07:55:34;100880.00;;;27.70
20103;BMP180;10210;52.284;9.892;2023-05-14T07:58:00;100878.00;;;27.80
20103;BMP180;10210;52.284;9.892;2023-05-14T08:00:25;100876.00;;;28.00
20103;BMP180;10210;52.284;9.892;2023-05-14T08:02:51;100876.00;;;28.10
20103;BMP180;10210;52.284;9.892;2023-05-14T08:05:17;100879.00;;;28.20
20103;BMP180;10210;52.284;9.892;2023-05-14T08:07:43;100876.00;;;28.40
20103;BMP180;10210;52.284;9.892;2023-05-14T08:10:09;100877.00;;;28.50
20103;BMP180;10210;52.284;9.892;2023-05-14T08:12:35;100888.00;;;28.50
20103;BMP180;10210;52.284;9.892;2023-05-14T08:15:01;100878.00;;;28.50
20103;BMP180;10210;52.284;9.892;2023-05-14T08:17:27;100886.00;;;28.70
20103;BMP180;10210;52.284;9.892;2023-05-14T08:19:53;100878.00;;;28.80
20103;BMP180;10210;52.284;9.892;2023-05-14T08:22:19;100885.00;;;29.00
20103;BMP180;10210;52.284;9.892;2023-05-14T08:24:44;100883.00;;;29.10
20103;BMP180;10210;52.284;9.892;2023-05-14T08:27:10;100881.00;;;29.20
20103;BMP180;10210;52.284;9.892;2023-05-14T08:29:35;100874.00;;;29.10
20103;BMP180;10210;52.284;9.892;2023-05-14T08:32:01;100884.00;;;29.00
20103;BMP180;10210;52.284;9.892;2023-05-14T08:34:27;100874.00;;;28.90
20103;BMP180;10210;52.284;9.892;2023-05-14T08:36:53;100871.00;;;28.80
20103;BMP180;10210;52.284;9.892;2023-05-14T08:39:19;100872.00;;;28.80
20103;BMP180;10210;52.284;9.892;2023-05-14T08:41:45;100876.00;;;28.70
20103;BMP180;10210;52.284;9.892;2023-05-14T08:44:18;100867.00;;;28.80
20103;BMP180;10210;52.284;9.892;2023-05-14T08:46:44;100862.00;;;28.80
20103;BMP180;10210;52.284;9.892;2023-05-14T08:51:56;100863.00;;;28.80
20103;BMP180;10210;52.284;9.892;2023-05-14T08:54:22;100859.00;;;28.80
20103;BMP180;10210;52.284;9.892;2023-05-14T08:56:50;100849.00;;;28.80
20103;BMP180;10210;52.284;9.892;2023-05-14T08:59:16;100853.00;;;28.70
20103;BMP180;10210;52.284;9.892;2023-05-14T09:01:48;100839.00;;;28.70
20103;BMP180;10210;52.284;9.892;2023-05-14T09:04:20;100844.00;;;28.70
20103;BMP180;10210;52.284;9.892;2023-05-14T09:06:49;100837.00;;;28.70
20103;BMP180;10210;52.284;9.892;2023-05-14T09:09:15;100836.00;;;28.70
20103;BMP180;10210;52.284;9.892;2023-05-14T09:11:45;100845.00;;;28.70
20103;BMP180;10210;52.284;9.892;2023-05-14T09:14:11;100844.00;;;28.70
20103;BMP180;10210;52.284;9.892;2023-05-14T09:16:38;100837.00;;;28.60
20103;BMP180;10210;52.284;9.892;2023-05-14T09:19:06;100836.00;;;28.50
20103;BMP180;10210;52.284;9.892;2023-05-14T09:21:32;100845.00;;;28.50
20103;BMP180;10210;52.284;9.892;2023-05-14T09:23:58;100834.00;;;28.50
20103;BMP180;10210;52.284;9.892;2023-05-14T09:26:25;100837.00;;;28.50
20103;BMP180;10210;52.284;9.892;2023-05-14T09:28:56;100834.00;;;28.40
20103;BMP180;10210;52.284;9.892;2023-05-14T09:31:22;100833.00;;;28.50
20103;BMP180;10210;52.284;9.892;2023-05-14T09:33:51;100836.00;;;28.40
20103;BMP180;10210;52.284;9.892;2023-05-14T09:36:18;100827.00;;;28.40
20103;BMP180;10210;52.284;9.892;2023-05-14T09:38:44;100824.00;;;28.40
20103;BMP180;10210;52.284;9.892;2023-05-14T09:41:10;100824.00;;;28.40
20103;BMP180;10210;52.284;9.892;2023-05-14T09:43:36;100819.00;;;28.40
20103;BMP180;10210;52.284;9.892;2023-05-14T09:46:01;100817.00;;;28.30
20103;BMP180;10210;52.284;9.892;2023-05-14T09:48:27;100818.00;;;28.30
20103;BMP180;10210;52.284;9.892;2023-05-14T09:50:54;100808.00;;;28.30
20103;BMP180;10210;52.284;9.892;2023-05-14T09:53:20;100805.00;;;28.20
20103;BMP180;10210;52.284;9.892;2023-05-14T09:55:46;100803.00;;;28.10
20103;BMP180;10210;52.284;9.892;2023-05-14T09:58:12;100796.00;;;28.10
20103;BMP180;10210;52.284;9.892;2023-05-14T10:00:45;100801.00;;;28.10
20103;BMP180;10210;52.284;9.892;2023-05-14T10:03:13;100791.00;;;28.00
20103;BMP180;10210;52.284;9.892;2023-05-14T10:05:41;100791.00;;;28.00
20103;BMP180;10210;52.284;9.892;2023-05-14T10:08:33;100787.00;;;27.90
20103;BMP180;10210;52.284;9.892;2023-05-14T10:11:05;100795.00;;;27.80
20103;BMP180;10210;52.284;9.892;2023-05-14T10:13:39;100789.00;;;27.70
20103;BMP180;10210;52.284;9.892;2023-05-14T10:16:15;100783.00;;;27.70
20103;BMP180;10210;52.284;9.892;2023-05-14T10:18:49;100782.00;;;27.70
20103;BMP180;10210;52.284;9.892;2023-05-14T10:21:19;100784.00;;;27.70
20103;BMP180;10210;52.284;9.892;2023-05-14T10:23:47;100783.00;;;27.70
20103;BMP180;10210;52.284;9.892;2023-05-14T10:26:15;100779.00;;;27.80
20103;BMP180;10210;52.284;9.892;2023-05-14T10:28:41;100771.00;;;27.70
20103;BMP180;10210;52.284;9.892;2023-05-14T10:31:10;100778.00;;;27.80
20103;BMP180;10210;52.284;9.892;2023-05-14T10:33:49;100773.00;;;27.70
20103;BMP180;10210;52.284;9.892;2023-05-14T10:36:17;100774.00;;;27.70
20103;BMP180;10210;52.284;9.892;2023-05-14T10:38:43;100767.00;;;27.70
20103;BMP180;10210;52.284;9.892;2023-05-14T10:41:13;100778.00;;;27.60
20103;BMP180;10210;52.284;9.892;2023-05-14T10:43:46;100773.00;;;27.60
20103;BMP180;10210;52.284;9.892;2023-05-14T10:46:12;100768.00;;;27.50
20103;BMP180;10210;52.284;9.892;2023-05-14T10:48:41;100775.00;;;27.50
20103;BMP180;10210;52.284;9.892;2023-05-14T10:51:09;100760.00;;;27.50
20103;BMP180;10210;52.284;9.892;2023-05-14T10:53:40;100772.00;;;27.60
20103;BMP180;10210;52.284;9.892;2023-05-14T10:56:13;100764.00;;;27.60
20103;BMP180;10210;52.284;9.892;2023-05-14T10:58:42;100771.00;;;27.70
20103;BMP180;10210;52.284;9.892;2023-05-14T11:01:11;100760.00;;;27.80
20103;BMP180;10210;52.284;9.892;2023-05-14T11:03:40;100759.00;;;27.70
20103;BMP180;10210;52.284;9.892;2023-05-14T11:06:07;100759.00;;;27.70
20103;BMP180;10210;52.284;9.892;2023-05-14T11:08:33;100757.00;;;27.70
20103;BMP180;10210;52.284;9.892;2023-05-14T11:10:59;100761.00;;;27.70
20103;BMP180;10210;52.284;9.892;2023-05-14T11:13:26;100746.00;;;27.60
20103;BMP180;10210;52.284;9.892;2023-05-14T11:15:52;100755.00;;;27.60
20103;BMP180;10210;52.284;9.892;2023-05-14T11:18:36;100748.00;;;27.60
20103;BMP180;10210;52.284;9.892;2023-05-14T11:21:03;100747.00;;;27.60
20103;BMP180;10210;52.284;9.892;2023-05-14T11:23:28;100743.00;;;27.60
20103;BMP180;10210;52.284;9.892;2023-05-14T11:25:55;100746.00;;;27.60
20103;BMP180;10210;52.284;9.892;2023-05-14T11:28:22;100736.00;;;27.70
20103;BMP180;10210;52.284;9.892;2023-05-14T11:30:49;100727.00;;;27.70
20103;BMP180;10210;52.284;9.892;2023-05-14T11:33:16;100728.00;;;27.80
20103;BMP180;10210;52.284;9.892;2023-05-14T11:35:42;100716.00;;;27.80
20103;BMP180;10210;52.284;9.892;2023-05-14T11:38:19;100710.00;;;27.90
20103;BMP180;10210;52.284;9.892;2023-05-14T11:40:56;100716.00;;;27.90
20103;BMP180;10210;52.284;9.892;2023-05-14T11:43:23;100709.00;;;28.00
20103;BMP180;10210;52.284;9.892;2023-05-14T11:45:51;100712.00;;;28.00
20103;BMP180;10210;52.284;9.892;2023-05-14T11:48:17;100709.00;;;28.10
20103;BMP180;10210;52.284;9.892;2023-05-14T11:50:46;100711.00;;;28.20
20103;BMP180;10210;52.284;9.892;2023-05-14T11:53:17;100707.00;;;28.20
20103;BMP180;10210;52.284;9.892;2023-05-14T11:55:44;100695.00;;;28.20
20103;BMP180;10210;52.284;9.892;2023-05-14T11:58:10;100700.00;;;28.30
20103;BMP180;10210;52.284;9.892;2023-05-14T12:00:37;100694.00;;;28.30
20103;BMP180;10210;52.284;9.892;2023-05-14T12:03:04;100690.00;;;28.30
20103;BMP180;10210;52.284;9.892;2023-05-14T12:05:30;100687.00;;;28.30
20103;BMP180;10210;52.284;9.892;2023-05-14T12:07:55;100689.00;;;28.40
20103;BMP180;10210;52.284;9.892;2023-05-14T12:10:21;100694.00;;;28.40
20103;BMP180;10210;52.284;9.892;2023-05-14T12:12:47;100688.00;;;28.50
20103;BMP180;10210;52.284;9.892;2023-05-14T12:15:14;100688.00;;;28.50
20103;BMP180;10210;52.284;9.892;2023-05-14T12:17:41;100691.00;;;28.50
20103;BMP180;10210;52.284;9.892;2023-05-14T12:20:09;100686.00;;;28.50
20103;BMP180;10210;52.284;9.892;2023-05-14T12:22:35;100679.00;;;28.40
20103;BMP180;10210;52.284;9.892;2023-05-14T12:25:01;100676.00;;;28.50
20103;BMP180;10210;52.284;9.892;2023-05-14T12:27:28;100676.00;;;28.50
20103;BMP180;10210;52.284;9.892;2023-05-14T12:29:59;100671.00;;;28.60
20103;BMP180;10210;52.284;9.892;2023-05-14T12:32:26;100664.00;;;28.70
20103;BMP180;10210;52.284;9.892;2023-05-14T12:34:52;100655.00;;;28.80
20103;BMP180;10210;52.284;9.892;2023-05-14T12:37:18;100658.00;;;28.90
20103;BMP180;10210;52.284;9.892;2023-05-14T12:39:44;100656.00;;;29.00
20103;BMP180;10210;52.284;9.892;2023-05-14T12:42:09;100655.00;;;29.20
20103;BMP180;10210;52.284;9.892;2023-05-14T12:44:35;100654.00;;;29.30
20103;BMP180;10210;52.284;9.892;2023-05-14T12:47:01;100648.00;;;29.30
20103;BMP180;10210;52.284;9.892;2023-05-14T12:49:26;100640.00;;;29.40
20103;BMP180;10210;52.284;9.892;2023-05-14T12:51:52;100641.00;;;29.50
20103;BMP180;10210;52.284;9.892;2023-05-14T12:54:18;100643.00;;;29.50
20103;BMP180;10210;52.284;9.892;2023-05-14T12:56:43;100631.00;;;29.50
20103;BMP180;10210;52.284;9.892;2023-05-14T12:59:09;100633.00;;;29.50
20103;BMP180;10210;52.284;9.892;2023-05-14T13:01:35;100626.00;;;29.50
20103;BMP180;10210;52.284;9.892;2023-05-14T13:04:02;100628.00;;;29.60
20103;BMP180;10210;52.284;9.892;2023-05-14T13:06:27;100617.00;;;29.60
20103;BMP180;10210;52.284;9.892;2023-05-14T13:08:53;100618.00;;;29.60
20103;BMP180;10210;52.284;9.892;2023-05-14T13:11:19;100625.00;;;29.70
20103;BMP180;10210;52.284;9.892;2023-05-14T13:13:45;100614.00;;;29.70
20103;BMP180;10210;52.284;9.892;2023-05-14T13:16:11;100609.00;;;29.80
20103;BMP180;10210;52.284;9.892;2023-05-14T13:18:41;100597.00;;;29.90
20103;BMP180;10210;52.284;9.892;2023-05-14T13:21:06;100605.00;;;30.00
20103;BMP180;10210;52.284;9.892;2023-05-14T13:23:32;100603.00;;;30.00
20103;BMP180;10210;52.284;9.892;2023-05-14T13:25:58;100602.00;;;30.00
20103;BMP180;10210;52.284;9.892;2023-05-14T13:28:23;100598.00;;;30.00
20103;BMP180;10210;52.284;9.892;2023-05-14T13:31:05;100598.00;;;29.90
20103;BMP180;10210;52.284;9.892;2023-05-14T13:33:36;100599.00;;;29.90
20103;BMP180;10210;52.284;9.892;2023-05-14T13:36:02;100593.00;;;29.90
20103;BMP180;10210;52.284;9.892;2023-05-14T13:38:28;100595.00;;;29.80
20103;BMP180;10210;52.284;9.892;2023-05-14T13:40:54;100593.00;;;29.70
20103;BMP180;10210;52.284;9.892;2023-05-14T13:43:22;100590.00;;;29.60
20103;BMP180;10210;52.284;9.892;2023-05-14T13:45:48;100586.00;;;29.50
20103;BMP180;10210;52.284;9.892;2023-05-14T13:48:14;100582.00;;;29.50
20103;BMP180;10210;52.284;9.892;2023-05-14T13:50:40;100577.00;;;29.50
20103;BMP180;10210;52.284;9.892;2023-05-14T13:53:05;100575.00;;;29.50
20103;BMP180;10210;52.284;9.892;2023-05-14T13:55:31;100571.00;;;29.60
20103;BMP180;10210;52.284;9.892;2023-05-14T13:57:57;100567.00;;;29.70